sensor_id;sensor_type;location;lat;lon;timestamp;pressure;altitude;pressure_sealevel;temperature
20730;BMP280;10526;50.850;12.928;2023-09-07T00:01:40;98653.50;;;12.91
20730;BMP280;10526;50.850;12.928;2023-09-07T00:06:03;98652.41;;;12.85
20730;BMP280;10526;50.850;12.928;2023-09-07T00:10:25;98657.03;;;12.78
20730;BMP280;10526;50.850;12.928;2023-09-07T00:14:47;98654.44;;;12.67
20730;BMP280;10526;50.850;12.928;2023-09-07T00:19:09;98646.84;;;12.58
20730;BMP280;10526;50.850;12.928;2023-09-07T00:23:31;98654.47;;;12.60
20730;BMP280;10526;50.850;12.928;2023-09-07T00:27:54;98649.13;;;12.60
20730;BMP280;10526;50.850;12.928;2023-09-07T00:32:16;98647.63;;;12.59
20730;BMP280;10526;50.850;12.928;2023-09-07T00:36:38;98653.00;;;12.52
20730;BMP280;10526;50.850;12.928;2023-09-07T00:41:00;98643.13;;;12.45
20730;BMP280;10526;50.850;12.928;2023-09-07T00:45:23;98640.09;;;12.40
20730;BMP280;10526;50.850;12.928;2023-09-07T00:49:46;98644.69;;;12.35
20730;BMP280;10526;50.850;12.928;2023-09-07T00:54:08;98636.31;;;12.30
20730;BMP280;10526;50.850;12.928;2023-09-07T00:58:31;98643.19;;;12.31
20730;BMP280;10526;50.850;12.928;2023-09-07T01:02:53;98640.88;;;12.33
20730;BMP280;10526;50.850;12.928;2023-09-07T01:07:20;98635.91;;;12.35
20730;BMP280;10526;50.850;12.928;2023-09-07T01:11:43;98633.22;;;12.39
20730;BMP280;10526;50.850;12.928;2023-09-07T01:16:06;98633.97;;;12.39
20730;BMP280;10526;50.850;12.928;2023-09-07T01:20:30;98632.47;;;12.34
20730;BMP280;10526;50.850;12.928;2023-09-07T01:24:54;98641.66;;;12.26
20730;BMP280;10526;50.850;12.928;2023-09-07T01:29:17;98635.59;;;12.19
20730;BMP280;10526;50.850;12.928;2023-09-07T01:33:39;98631.06;;;12.09
20730;BMP280;10526;50.850;12.928;2023-09-07T01:38:01;98631.47;;;12.00
20730;BMP280;10526;50.850;12.928;2023-09-07T01:42:23;98636.84;;;11.93
20730;BMP280;10526;50.850;12.928;2023-09-07T01:46:45;98637.22;;;11.91
20730;BMP280;10526;50.850;12.928;2023-09-07T01:51:08;98627.72;;;11.83
20730;BMP280;10526;50.850;12.928;2023-09-07T01:55:33;98627.38;;;11.74
20730;BMP280;10526;50.850;12.928;2023-09-07T01:59:56;98631.19;;;11.66
20730;BMP280;10526;50.850;12.928;2023-09-07T02:04:20;98627.41;;;11.63
20730;BMP280;10526;50.850;12.928;2023-09-07T02:08:42;98619.00;;;11.54
20730;BMP280;10526;50.850;12.928;2023-09-07T02:13:05;98620.94;;;11.50
20730;BMP280;10526;50.850;12.928;2023-09-07T02:17:27;98633.13;;;11.44
20730;BMP280;10526;50.850;12.928;2023-09-07T02:21:49;98620.97;;;11.36
20730;BMP280;10526;50.850;12.928;2023-09-07T02:26:13;98629.34;;;11.27
20730;BMP280;10526;50.850;12.928;2023-09-07T02:30:35;98626.69;;;11.27
20730;BMP280;10526;50.850;12.928;2023-09-07T02:34:58;98631.25;;;11.30
20730;BMP280;10526;50.850;12.928;2023-09-07T02:39:20;98625.16;;;11.26
20730;BMP280;10526;50.850;12.928;2023-09-07T02:43:43;98630.50;;;11.26
20730;BMP280;10526;50.850;12.928;2023-09-07T02:48:06;98627.06;;;11.26
20730;BMP280;10526;50.850;12.928;2023-09-07T02:52:30;98629.34;;;11.23
20730;BMP280;10526;50.850;12.928;2023-09-07T02:56:52;98635.06;;;11.26
20730;BMP280;10526;50.850;12.928;2023-09-07T03:01:14;98634.28;;;11.21
20730;BMP280;10526;50.850;12.928;2023-09-07T03:05:43;98641.53;;;11.17
20730;BMP280;10526;50.850;12.928;2023-09-07T03:10:05;98627.81;;;11.15
20730;BMP280;10526;50.850;12.928;2023-09-07T03:14:27;98636.22;;;11.10
20730;BMP280;10526;50.850;12.928;2023-09-07T03:18:50;98639.63;;;11.14
20730;BMP280;10526;50.850;12.928;2023-09-07T03:23:12;98641.91;;;11.19
20730;BMP280;10526;50.850;12.928;2023-09-07T03:27:34;98630.88;;;11.17
20730;BMP280;10526;50.850;12.928;2023-09-07T03:31:57;98635.81;;;11.08
20730;BMP280;10526;50.850;12.928;2023-09-07T03:36:19;98631.63;;;11.00
20730;BMP280;10526;50.850;12.928;2023-09-07T03:40:44;98636.59;;;10.94
20730;BMP280;10526;50.850;12.928;2023-09-07T03:45:06;98638.09;;;10.92
20730;BMP280;10526;50.850;12.928;2023-09-07T03:49:29;98641.13;;;10.83
20730;BMP280;10526;50.850;12.928;2023-09-07T03:53:51;98649.84;;;10.77
20730;BMP280;10526;50.850;12.928;2023-09-07T03:58:13;98650.25;;;10.72
20730;BMP280;10526;50.850;12.928;2023-09-07T04:02:37;98636.94;;;10.72
20730;BMP280;10526;50.850;12.928;2023-09-07T04:07:01;98638.03;;;10.71
20730;BMP280;10526;50.850;12.928;2023-09-07T04:11:23;98637.31;;;10.81
20730;BMP280;10526;50.850;12.928;2023-09-07T04:15:45;98636.59;;;10.94
20730;BMP280;10526;50.850;12.928;2023-09-07T04:20:11;98638.09;;;11.13
20730;BMP280;10526;50.850;12.928;2023-09-07T04:24:35;98643.06;;;11.33
20730;BMP280;10526;50.850;12.928;2023-09-07T04:28:59;98646.47;;;11.44
20730;BMP280;10526;50.850;12.928;2023-09-07T04:33:21;98646.47;;;11.37
20730;BMP280;10526;50.850;12.928;2023-09-07T04:37:44;98648.75;;;11.38
20730;BMP280;10526;50.850;12.928;2023-09-07T04:42:06;98653.69;;;11.40
20730;BMP280;10526;50.850;12.928;2023-09-07T04:46:29;98645.34;;;11.41
20730;BMP280;10526;50.850;12.928;2023-09-07T04:51:03;98648.75;;;11.56
20730;BMP280;10526;50.850;12.928;2023-09-07T04:55:25;98646.72;;;12.80
20730;BMP280;10526;50.850;12.928;2023-09-07T04:59:48;98660.63;;;14.22
20730;BMP280;10526;50.850;12.928;2023-09-07T05:04:10;98660.28;;;15.84
20730;BMP280;10526;50.850;12.928;2023-09-07T05:08:33;98670.22;;;17.91
20730;BMP280;10526;50.850;12.928;2023-09-07T05:12:56;98670.06;;;19.93
20730;BMP280;10526;50.850;12.928;2023-09-07T05:17:18;98674.25;;;21.62
20730;BMP280;10526;50.850;12.928;2023-09-07T05:21:40;98686.19;;;23.22
20730;BMP280;10526;50.850;12.928;2023-09-07T05:26:03;98693.56;;;24.56
20730;BMP280;10526;50.850;12.928;2023-09-07T05:30:25;98698.56;;;26.15
20730;BMP280;10526;50.850;12.928;2023-09-07T05:34:48;98697.28;;;27.71
20730;BMP280;10526;50.850;12.928;2023-09-07T05:39:10;98701.47;;;28.82
20730;BMP280;10526;50.850;12.928;2023-09-07T05:43:32;98709.34;;;29.75
20730;BMP280;10526;50.850;12.928;2023-09-07T05:47:54;98710.28;;;30.71
20730;BMP280;10526;50.850;12.928;2023-09-07T05:52:16;98718.66;;;31.77
20730;BMP280;10526;50.850;12.928;2023-09-07T05:56:39;98720.06;;;32.72
20730;BMP280;10526;50.850;12.928;2023-09-07T06:01:01;98718.47;;;33.33
20730;BMP280;10526;50.850;12.928;2023-09-07T06:05:23;98716.53;;;33.92
20730;BMP280;10526;50.850;12.928;2023-09-07T06:09:46;98718.50;;;34.58
20730;BMP280;10526;50.850;12.928;2023-09-07T06:14:08;98718.47;;;35.04
20730;BMP280;10526;50.850;12.928;2023-09-07T06:18:31;98722.03;;;35.37
20730;BMP280;10526;50.850;12.928;2023-09-07T06:22:53;98717.00;;;35.98
20730;BMP280;10526;50.850;12.928;2023-09-07T06:27:16;98729.00;;;36.50
20730;BMP280;10526;50.850;12.928;2023-09-07T06:31:39;98739.69;;;37.13
20730;BMP280;10526;50.850;12.928;2023-09-07T06:36:01;98741.78;;;37.83
20730;BMP280;10526;50.850;12.928;2023-09-07T06:40:24;98738.13;;;39.02
20730;BMP280;10526;50.850;12.928;2023-09-07T06:44:51;98744.75;;;40.59
20730;BMP280;10526;50.850;12.928;2023-09-07T06:49:14;98747.63;;;41.48
20730;BMP280;10526;50.850;12.928;2023-09-07T06:53:36;98753.59;;;41.77
20730;BMP280;10526;50.850;12.928;2023-09-07T06:58:18;98747.66;;;42.06
20730;BMP280;10526;50.850;12.928;2023-09-07T07:02:40;98748.94;;;43.02
20730;BMP280;10526;50.850;12.928;2023-09-07T07:07:04;98756.09;;;43.30
20730;BMP280;10526;50.850;12.928;2023-09-07T07:11:27;98744.66;;;43.40
20730;BMP280;10526;50.850;12.928;2023-09-07T07:15:50;98750.09;;;43.90
20730;BMP280;10526;50.850;12.928;2023-09-07T07:20:31;98750.34;;;42.52
20730;BMP280;10526;50.850;12.928;2023-09-07T07:24:54;98747.13;;;40.95
20730;BMP280;10526;50.850;12.928;2023-09-07T07:29:16;98747.88;;;41.52
20730;BMP280;10526;50.850;12.928;2023-09-07T07:33:40;98749.56;;;43.00
20730;BMP280;10526;50.850;12.928;2023-09-07T07:38:03;98748.59;;;43.35
20730;BMP280;10526;50.850;12.928;2023-09-07T07:42:27;98756.66;;;43.54
20730;BMP280;10526;50.850;12.928;2023-09-07T07:46:49;98752.88;;;44.17
20730;BMP280;10526;50.850;12.928;2023-09-07T07:51:12;98752.97;;;44.19
20730;BMP280;10526;50.850;12.928;2023-09-07T07:55:37;98752.41;;;44.66
20730;BMP280;10526;50.850;12.928;2023-09-07T08:00:07;98743.09;;;44.18
20730;BMP280;10526;50.850;12.928;2023-09-07T08:04:42;98748.75;;;43.11
20730;BMP280;10526;50.850;12.928;2023-09-07T08:09:04;98744.25;;;43.86
20730;BMP280;10526;50.850;12.928;2023-09-07T08:13:27;98740.91;;;42.71
20730;BMP280;10526;50.850;12.928;2023-09-07T08:17:50;98743.16;;;42.61
20730;BMP280;10526;50.850;12.928;2023-09-07T08:22:13;98741.34;;;43.43
20730;BMP280;10526;50.850;12.928;2023-09-07T08:26:36;98733.81;;;44.30
20730;BMP280;10526;50.850;12.928;2023-09-07T08:31:01;98742.28;;;43.48
20730;BMP280;10526;50.850;12.928;2023-09-07T08:35:27;98728.06;;;44.71
20730;BMP280;10526;50.850;12.928;2023-09-07T08:39:49;98730.75;;;44.39
20730;BMP280;10526;50.850;12.928;2023-09-07T08:44:16;98738.28;;;42.61
20730;BMP280;10526;50.850;12.928;2023-09-07T08:48:39;98740.41;;;43.66
20730;BMP280;10526;50.850;12.928;2023-09-07T08:53:02;98739.47;;;42.95
20730;BMP280;10526;50.850;12.928;2023-09-07T08:57:25;98740.13;;;42.82
20730;BMP280;10526;50.850;12.928;2023-09-07T09:01:48;98739.53;;;42.84
20730;BMP280;10526;50.850;12.928;2023-09-07T09:06:11;98741.69;;;41.88
20730;BMP280;10526;50.850;12.928;2023-09-07T09:10:34;98742.38;;;40.43
20730;BMP280;10526;50.850;12.928;2023-09-07T09:14:58;98744.72;;;38.97
20730;BMP280;10526;50.850;12.928;2023-09-07T09:19:31;98726.97;;;41.08
20730;BMP280;10526;50.850;12.928;2023-09-07T09:23:57;98734.38;;;42.06
20730;BMP280;10526;50.850;12.928;2023-09-07T09:28:19;98727.84;;;41.67
20730;BMP280;10526;50.850;12.928;2023-09-07T09:32:43;98726.13;;;42.82
20730;BMP280;10526;50.850;12.928;2023-09-07T09:37:13;98732.06;;;44.23
20730;BMP280;10526;50.850;12.928;2023-09-07T09:41:38;98718.72;;;42.50
20730;BMP280;10526;50.850;12.928;2023-09-07T09:46:01;98712.81;;;42.83
20730;BMP280;10526;50.850;12.928;2023-09-07T09:50:23;98704.66;;;43.80
20730;BMP280;10526;50.850;12.928;2023-09-07T09:54:46;98711.84;;;42.53
20730;BMP280;10526;50.850;12.928;2023-09-07T09:59:09;98711.13;;;41.92
20730;BMP280;10526;50.850;12.928;2023-09-07T10:03:45;98711.16;;;42.41
20730;BMP280;10526;50.850;12.928;2023-09-07T10:08:13;98705.78;;;42.45
20730;BMP280;10526;50.850;12.928;2023-09-07T10:12:41;98707.69;;;43.04
20730;BMP280;10526;50.850;12.928;2023-09-07T10:17:04;98701.28;;;41.91
20730;BMP280;10526;50.850;12.928;2023-09-07T10:21:26;98699.06;;;42.13
20730;BMP280;10526;50.850;12.928;2023-09-07T10:25:53;98698.47;;;42.51
20730;BMP280;10526;50.850;12.928;2023-09-07T10:30:15;98695.06;;;41.58
20730;BMP280;10526;50.850;12.928;2023-09-07T10:34:46;98702.03;;;41.45
20730;BMP280;10526;50.850;12.928;2023-09-07T10:39:08;98679.81;;;41.03
20730;BMP280;10526;50.850;12.928;2023-09-07T10:43:34;98683.97;;;40.05
20730;BMP280;10526;50.850;12.928;2023-09-07T10:47:57;98685.31;;;39.63
20730;BMP280;10526;50.850;12.928;2023-09-07T10:52:19;98682.13;;;40.19
20730;BMP280;10526;50.850;12.928;2023-09-07T10:56:44;98698.81;;;39.98
20730;BMP280;10526;50.850;12.928;2023-09-07T11:01:07;98694.25;;;42.39
20730;BMP280;10526;50.850;12.928;2023-09-07T11:05:30;98698.00;;;41.95
20730;BMP280;10526;50.850;12.928;2023-09-07T11:09:53;98686.59;;;39.82
20730;BMP280;10526;50.850;12.928;2023-09-07T11:14:15;98680.50;;;39.95
20730;BMP280;10526;50.850;12.928;2023-09-07T11:18:37;98700.41;;;40.32
20730;BMP280;10526;50.850;12.928;2023-09-07T11:23:00;98690.91;;;38.56
20730;BMP280;10526;50.850;12.928;2023-09-07T11:27:29;98675.41;;;36.82
20730;BMP280;10526;50.850;12.928;2023-09-07T11:31:52;98663.31;;;35.71
20730;BMP280;10526;50.850;12.928;2023-09-07T11:36:15;98657.16;;;35.55
20730;BMP280;10526;50.850;12.928;2023-09-07T11:40:37;98654.78;;;35.04
20730;BMP280;10526;50.850;12.928;2023-09-07T11:44:59;98657.75;;;34.83
20730;BMP280;10526;50.850;12.928;2023-09-07T11:49:22;98660.47;;;33.92
20730;BMP280;10526;50.850;12.928;2023-09-07T11:53:44;98658.72;;;32.37
20730;BMP280;10526;50.850;12.928;2023-09-07T11:58:06;98662.66;;;31.95
20730;BMP280;10526;50.850;12.928;2023-09-07T12:02:28;98650.03;;;31.13
20730;BMP280;10526;50.850;12.928;2023-09-07T12:06:51;98649.91;;;30.47
20730;BMP280;10526;50.850;12.928;2023-09-07T12:11:13;98640.28;;;30.22
20730;BMP280;10526;50.850;12.928;2023-09-07T12:15:35;98645.84;;;29.60
20730;BMP280;10526;50.850;12.928;2023-09-07T12:19:57;98639.03;;;29.23
20730;BMP280;10526;50.850;12.928;2023-09-07T12:24:20;98630.19;;;29.06
20730;BMP280;10526;50.850;12.928;2023-09-07T12:28:42;98632.66;;;28.80
20730;BMP280;10526;50.850;12.928;2023-09-07T12:33:04;98631.97;;;28.73
20730;BMP280;10526;50.850;12.928;2023-09-07T12:37:26;98646.00;;;28.64
20730;BMP280;10526;50.850;12.928;2023-09-07T12:41:48;98630.13;;;28.52
20730;BMP280;10526;50.850;12.928;2023-09-07T12:46:10;98637.25;;;28.30
20730;BMP280;10526;50.850;12.928;2023-09-07T12:50:32;98617.38;;;28.24
20730;BMP280;10526;50.850;12.928;2023-09-07T12:54:55;98616.84;;;28.31
20730;BMP280;10526;50.850;12.928;2023-09-07T12:59:17;98611.56;;;28.33
20730;BMP280;10526;50.850;12.928;2023-09-07T13:03:39;98606.78;;;28.45
20730;BMP280;10526;50.850;12.928;2023-09-07T13:08:02;98610.53;;;28.42
20730;BMP280;10526;50.850;12.928;2023-09-07T13:12:24;98602.91;;;28.29
20730;BMP280;10526;50.850;12.928;2023-09-07T13:16:47;98600.47;;;28.20
20730;BMP280;10526;50.850;12.928;2023-09-07T13:21:09;98603.25;;;28.09
20730;BMP280;10526;50.850;12.928;2023-09-07T13:25:31;98599.75;;;28.14
20730;BMP280;10526;50.850;12.928;2023-09-07T13:29:54;98596.53;;;28.10
20730;BMP280;10526;50.850;12.928;2023-09-07T13:34:16;98589.06;;;28.11
20730;BMP280;10526;50.850;12.928;2023-09-07T13:38:38;98584.06;;;28.15
20730;BMP280;10526;50.850;12.928;2023-09-07T13:43:00;98604.00;;;28.10
20730;BMP280;10526;50.850;12.928;2023-09-07T13:47:22;98582.09;;;28.10
20730;BMP280;10526;50.850;12.928;2023-09-07T13:51:44;98593.25;;;28.12
20730;BMP280;10526;50.850;12.928;2023-09-07T13:56:07;98582.59;;;28.08
20730;BMP280;10526;50.850;12.928;2023-09-07T14:00:29;98584.81;;;28.10
20730;BMP280;10526;50.850;12.928;2023-09-07T14:04:51;98576.09;;;28.11
20730;BMP280;10526;50.850;12.928;2023-09-07T14:09:14;98566.13;;;28.14
20730;BMP280;10526;50.850;12.928;2023-09-07T14:13:36;98579.34;;;28.10
20730;BMP280;10526;50.850;12.928;2023-09-07T14:17:58;98567.91;;;28.06
20730;BMP280;10526;50.850;12.928;2023-09-07T14:22:20;98578.63;;;28.03
20730;BMP280;10526;50.850;12.928;2023-09-07T14:26:42;98577.66;;;28.01
20730;BMP280;10526;50.850;12.928;2023-09-07T14:31:06;98568.72;;;27.95
20730;BMP280;10526;50.850;12.928;2023-09-07T14:35:29;98570.00;;;27.88
20730;BMP280;10526;50.850;12.928;2023-09-07T14:39:52;98569.25;;;27.88
20730;BMP280;10526;50.850;12.928;2023-09-07T14:44:20;98573.78;;;27.85
20730;BMP280;10526;50.850;12.928;2023-09-07T14:48:43;98561.03;;;27.88
20730;BMP280;10526;50.850;12.928;2023-09-07T14:53:06;98562.81;;;27.85
20730;BMP280;10526;50.850;12.928;2023-09-07T14:57:28;98562.56;;;27.83
20730;BMP280;10526;50.850;12.928;2023-09-07T15:01:50;98559.84;;;27.78
20730;BMP280;10526;50.850;12.928;2023-09-07T15:06:24;98556.88;;;27.76
20730;BMP280;10526;50.850;12.928;2023-09-07T15:10:47;98560.41;;;27.71
20730;BMP280;10526;50.850;12.928;2023-09-07T15:15:09;98553.19;;;27.67
20730;BMP280;10526;50.850;12.928;2023-09-07T15:19:31;98551.47;;;27.64
20730;BMP280;10526;50.850;12.928;2023-09-07T15:23:56;98558.19;;;27.58
20730;BMP280;10526;50.850;12.928;2023-09-07T15:28:18;98550.03;;;27.52
20730;BMP280;10526;50.850;12.928;2023-09-07T15:32:41;98562.22;;;27.46
20730;BMP280;10526;50.850;12.928;2023-09-07T15:37:04;98555.03;;;27.37
20730;BMP280;10526;50.850;12.928;2023-09-07T15:41:26;98557.28;;;27.27
20730;BMP280;10526;50.850;12.928;2023-09-07T15:45:49;98552.38;;;27.20
20730;BMP280;10526;50.850;12.928;2023-09-07T15:50:11;98542.69;;;27.14
20730;BMP280;10526;50.850;12.928;2023-09-07T15:54:33;98553.88;;;27.10
20730;BMP280;10526;50.850;12.928;2023-09-07T15:58:56;98554.38;;;27.03
20730;BMP280;10526;50.850;12.928;2023-09-07T16:03:20;98554.41;;;26.92
20730;BMP280;10526;50.850;12.928;2023-09-07T16:07:42;98555.88;;;26.82
20730;BMP280;10526;50.850;12.928;2023-09-07T16:12:05;98554.88;;;26.74
20730;BMP280;10526;50.850;12.928;2023-09-07T16:16:27;98558.88;;;26.61
20730;BMP280;10526;50.850;12.928;2023-09-07T16:20:50;98550.19;;;26.52
20730;BMP280;10526;50.850;12.928;2023-09-07T16:25:12;98539.75;;;26.45
20730;BMP280;10526;50.850;12.928;2023-09-07T16:29:34;98543.44;;;26.36
20730;BMP280;10526;50.850;12.928;2023-09-07T16:33:56;98546.44;;;26.33
20730;BMP280;10526;50.850;12.928;2023-09-07T16:38:18;98541.44;;;26.20
20730;BMP280;10526;50.850;12.928;2023-09-07T16:42:41;98534.69;;;26.04
20730;BMP280;10526;50.850;12.928;2023-09-07T16:47:03;98545.84;;;25.95
20730;BMP280;10526;50.850;12.928;2023-09-07T16:51:26;98541.34;;;25.75
20730;BMP280;10526;50.850;12.928;2023-09-07T16:55:47;98539.53;;;25.61
20730;BMP280;10526;50.850;12.928;2023-09-07T17:00:10;98535.94;;;25.44
20730;BMP280;10526;50.850;12.928;2023-09-07T17:04:34;98537.66;;;25.36
20730;BMP280;10526;50.850;12.928;2023-09-07T17:09:00;98533.59;;;25.20
20730;BMP280;10526;50.850;12.928;2023-09-07T17:13:23;98531.03;;;25.05
20730;BMP280;10526;50.850;12.928;2023-09-07T17:17:48;98533.84;;;24.85
20730;BMP280;10526;50.850;12.928;2023-09-07T17:22:11;98538.16;;;24.66
20730;BMP280;10526;50.850;12.928;2023-09-07T17:26:35;98540.97;;;24.45
20730;BMP280;10526;50.850;12.928;2023-09-07T17:30:57;98539.22;;;24.22
20730;BMP280;10526;50.850;12.928;2023-09-07T17:35:19;98534.75;;;23.99
20730;BMP280;10526;50.850;12.928;2023-09-07T17:39:42;98543.81;;;23.70
20730;BMP280;10526;50.850;12.928;2023-09-07T17:44:04;98537.78;;;23.45
20730;BMP280;10526;50.850;12.928;2023-09-07T17:48:26;98530.28;;;23.20
20730;BMP280;10526;50.850;12.928;2023-09-07T17:52:50;98540.78;;;22.98
20730;BMP280;10526;50.850;12.928;2023-09-07T17:57:12;98540.03;;;22.68
20730;BMP280;10526;50.850;12.928;2023-09-07T18:01:34;98537.84;;;22.42
20730;BMP280;10526;50.850;12.928;2023-09-07T18:05:56;98541.38;;;22.19
20730;BMP280;10526;50.850;12.928;2023-09-07T18:10:19;98547.13;;;21.88
20730;BMP280;10526;50.850;12.928;2023-09-07T18:14:41;98545.06;;;21.59
20730;BMP280;10526;50.850;12.928;2023-09-07T18:19:04;98548.94;;;21.34
20730;BMP280;10526;50.850;12.928;2023-09-07T18:23:26;98556.06;;;21.04
20730;BMP280;10526;50.850;12.928;2023-09-07T18:27:49;98554.31;;;20.74
20730;BMP280;10526;50.850;12.928;2023-09-07T18:32:11;98553.72;;;20.51
20730;BMP280;10526;50.850;12.928;2023-09-07T18:36:33;98543.34;;;20.31
20730;BMP280;10526;50.850;12.928;2023-09-07T18:40:57;98548.59;;;20.17
20730;BMP280;10526;50.850;12.928;2023-09-07T18:45:20;98549.88;;;19.94
20730;BMP280;10526;50.850;12.928;2023-09-07T18:49:42;98545.16;;;19.67
20730;BMP280;10526;50.850;12.928;2023-09-07T18:54:05;98550.50;;;19.49
20730;BMP280;10526;50.850;12.928;2023-09-07T18:58:28;98547.00;;;19.39
20730;BMP280;10526;50.850;12.928;2023-09-07T19:02:51;98544.41;;;19.35
20730;BMP280;10526;50.850;12.928;2023-09-07T19:07:13;98550.44;;;19.30
20730;BMP280;10526;50.850;12.928;2023-09-07T19:11:36;98549.63;;;19.21
20730;BMP280;10526;50.850;12.928;2023-09-07T19:16:01;98548.47;;;19.09
20730;BMP280;10526;50.850;12.928;2023-09-07T19:20:25;98552.31;;;18.99
20730;BMP280;10526;50.850;12.928;2023-09-07T19:24:48;98550.19;;;18.94
20730;BMP280;10526;50.850;12.928;2023-09-07T19:29:10;98548.16;;;18.85
20730;BMP280;10526;50.850;12.928;2023-09-07T19:33:33;98549.41;;;18.71
20730;BMP280;10526;50.850;12.928;2023-09-07T19:37:56;98552.09;;;18.71
20730;BMP280;10526;50.850;12.928;2023-09-07T19:42:21;98548.56;;;18.74
20730;BMP280;10526;50.850;12.928;2023-09-07T19:46:46;98544.00;;;18.71
20730;BMP280;10526;50.850;12.928;2023-09-07T19:51:13;98542.47;;;18.61
20730;BMP280;10526;50.850;12.928;2023-09-07T19:55:36;98543.25;;;18.49
20730;BMP280;10526;50.850;12.928;2023-09-07T19:59:58;98550.06;;;18.41
20730;BMP280;10526;50.850;12.928;2023-09-07T20:04:21;98551.72;;;18.26
20730;BMP280;10526;50.850;12.928;2023-09-07T20:08:44;98560.25;;;17.99
20730;BMP280;10526;50.850;12.928;2023-09-07T20:13:06;98561.03;;;17.74
20730;BMP280;10526;50.850;12.928;2023-09-07T20:17:31;98562.41;;;17.53
20730;BMP280;10526;50.850;12.928;2023-09-07T20:21:57;98555.69;;;17.32
20730;BMP280;10526;50.850;12.928;2023-09-07T20:26:20;98561.47;;;17.18
20730;BMP280;10526;50.850;12.928;2023-09-07T20:30:42;98553.16;;;16.99
20730;BMP280;10526;50.850;12.928;2023-09-07T20:35:08;98553.50;;;16.85
20730;BMP280;10526;50.850;12.928;2023-09-07T20:39:31;98551.25;;;16.67
20730;BMP280;10526;50.850;12.928;2023-09-07T20:43:54;98548.19;;;16.53
20730;BMP280;10526;50.850;12.928;2023-09-07T20:48:16;98546.16;;;16.40
20730;BMP280;10526;50.850;12.928;2023-09-07T20:52:47;98544.09;;;16.32
20730;BMP280;10526;50.850;12.928;2023-09-07T20:57:09;98535.06;;;16.22
20730;BMP280;10526;50.850;12.928;2023-09-07T21:01:31;98534.91;;;16.13
20730;BMP280;10526;50.850;12.928;2023-09-07T21:05:54;98537.84;;;16.02
20730;BMP280;10526;50.850;12.928;2023-09-07T21:10:16;98533.47;;;15.92
20730;BMP280;10526;50.850;12.928;2023-09-07T21:14:38;98535.66;;;15.81
20730;BMP280;10526;50.850;12.928;2023-09-07T21:19:00;98532.44;;;15.70
20730;BMP280;10526;50.850;12.928;2023-09-07T21:23:23;98544.06;;;15.63
20730;BMP280;10526;50.850;12.928;2023-09-07T21:27:45;98540.78;;;15.56
20730;BMP280;10526;50.850;12.928;2023-09-07T21:32:08;98545.53;;;15.48
20730;BMP280;10526;50.850;12.928;2023-09-07T21:36:30;98541.13;;;15.38
20730;BMP280;10526;50.850;12.928;2023-09-07T21:40:52;98539.34;;;15.31
20730;BMP280;10526;50.850;12.928;2023-09-07T21:45:15;98539.06;;;15.26
20730;BMP280;10526;50.850;12.928;2023-09-07T21:49:37;98542.91;;;15.25
20730;BMP280;10526;50.850;12.928;2023-09-07T21:53:59;98536.50;;;15.18
20730;BMP280;10526;50.850;12.928;2023-09-07T21:58:23;98526.75;;;15.08
20730;BMP280;10526;50.850;12.928;2023-09-07T22:02:45;98534.25;;;14.97
20730;BMP280;10526;50.850;12.928;2023-09-07T22:07:07;98525.94;;;14.88
20730;BMP280;10526;50.850;12.928;2023-09-07T22:11:30;98522.69;;;14.77
20730;BMP280;10526;50.850;12.928;2023-09-07T22:15:52;98524.00;;;14.69
20730;BMP280;10526;50.850;12.928;2023-09-07T22:20:14;98526.13;;;14.57
20730;BMP280;10526;50.850;12.928;2023-09-07T22:24:36;98510.53;;;14.49
20730;BMP280;10526;50.850;12.928;2023-09-07T22:28:58;98523.38;;;14.38
20730;BMP280;10526;50.850;12.928;2023-09-07T22:33:20;98522.59;;;14.37
20730;BMP280;10526;50.850;12.928;2023-09-07T22:37:43;98519.66;;;14.31
20730;BMP280;10526;50.850;12.928;2023-09-07T22:42:05;98511.19;;;14.33
20730;BMP280;10526;50.850;12.928;2023-09-07T22:46:27;98512.81;;;14.27
20730;BMP280;10526;50.850;12.928;2023-09-07T22:50:49;98513.72;;;14.17
20730;BMP280;10526;50.850;12.928;2023-09-07T22:55:12;98507.44;;;14.03
20730;BMP280;10526;50.850;12.928;2023-09-07T22:59:34;98507.22;;;13.91
20730;BMP280;10526;50.850;12.928;2023-09-07T23:03:56;98506.66;;;13.76
20730;BMP280;10526;50.850;12.928;2023-09-07T23:08:18;98508.38;;;13.63
20730;BMP280;10526;50.850;12.928;2023-09-07T23:12:40;98507.28;;;13.57
20730;BMP280;10526;50.850;12.928;2023-09-07T23:17:02;98503.91;;;13.53
20730;BMP280;10526;50.850;12.928;2023-09-07T23:21:24;98507.44;;;13.42
20730;BMP280;10526;50.850;12.928;2023-09-07T23:25:46;98508.31;;;13.36
20730;BMP280;10526;50.850;12.928;2023-09-07T23:30:10;98507.63;;;13.28
20730;BMP280;10526;50.850;12.928;2023-09-07T23:34:32;98520.28;;;13.24
20730;BMP280;10526;50.850;12.928;2023-09-07T23:38:54;98511.94;;;13.18
20730;BMP280;10526;50.850;12.928;2023-09-07T23:43:17;98509.72;;;13.10
20730;BMP280;10526;50.850;12.928;2023-09-07T23:47:40;98518.56;;;13.07
20730;BMP280;10526;50.850;12.928;2023-09-07T23:52:02;98522.78;;;13.01
20730;BMP280;10526;50.850;12.928;2023-09-07T23:56:24;98522.84;;;12.97
